createdAt,value
2023-05-03T00:01:09.543Z,2.20
2023-05-03T00:03:35.880Z,1.80
2023-05-03T00:06:15.754Z,2.00
2023-05-03T00:08:42.796Z,1.92
2023-05-03T00:11:09.784Z,2.13
2023-05-03T00:13:36.379Z,1.90
2023-05-03T00:16:02.736Z,2.10
2023-05-03T00:18:29.050Z,2.10
2023-05-03T00:20:55.372Z,2.28
2023-05-03T00:23:23.163Z,2.03
2023-05-03T00:25:56.894Z,1.73
2023-05-03T00:28:23.470Z,2.00
2023-05-03T00:30:49.916Z,1.80
2023-05-03T00:33:16.623Z,2.22
2023-05-03T00:35:43.708Z,2.15
2023-05-03T00:38:10.079Z,1.60
2023-05-03T00:40:36.388Z,1.77
2023-05-03T00:43:02.932Z,1.95
2023-05-03T00:45:34.148Z,2.05
2023-05-03T00:48:01.193Z,2.22
2023-05-03T00:50:27.800Z,1.90
2023-05-03T00:52:54.316Z,2.10
2023-05-03T00:55:20.755Z,2.28
2023-05-03T00:57:47.060Z,2.35
2023-05-03T01:00:14.134Z,1.90
2023-05-03T01:02:40.520Z,2.15
2023-05-03T01:05:07.407Z,2.10
2023-05-03T01:08:11.314Z,2.10
2023-05-03T01:10:52.115Z,2.10
2023-05-03T01:13:26.849Z,2.00
2023-05-03T01:16:06.419Z,2.20
2023-05-03T01:18:40.335Z,1.80
2023-05-03T01:21:07.684Z,1.90
2023-05-03T01:23:40.905Z,2.10
2023-05-03T01:26:19.420Z,1.83
2023-05-03T01:28:45.724Z,1.90
2023-05-03T01:31:14.993Z,2.00
2023-05-03T01:34:04.373Z,2.05
2023-05-03T01:36:31.201Z,1.75
2023-05-03T01:38:57.514Z,2.20
2023-05-03T01:41:24.508Z,1.70
2023-05-03T01:43:51.758Z,2.00
2023-05-03T01:46:18.161Z,2.28
2023-05-03T01:48:44.511Z,2.00
2023-05-03T01:51:10.859Z,1.92
2023-05-03T01:53:37.187Z,2.10
2023-05-03T01:56:03.571Z,2.40
2023-05-03T01:58:29.865Z,1.90
2023-05-03T02:00:56.857Z,1.92
2023-05-03T02:03:23.269Z,2.08
2023-05-03T02:05:49.593Z,1.85
2023-05-03T02:08:15.893Z,2.03
2023-05-03T02:10:44.392Z,2.05
2023-05-03T02:13:10.697Z,2.20
2023-05-03T02:15:37.006Z,2.10
2023-05-03T02:18:03.565Z,2.00
2023-05-03T02:20:29.983Z,2.00
2023-05-03T02:22:56.281Z,1.92
2023-05-03T02:25:22.592Z,2.13
2023-05-03T02:27:48.918Z,2.22
2023-05-03T02:30:15.284Z,2.20
2023-05-03T02:32:41.693Z,2.40
2023-05-03T02:35:08.320Z,2.20
2023-05-03T02:37:34.618Z,2.25
2023-05-03T02:40:01.140Z,2.10
2023-05-03T02:42:27.715Z,2.30
2023-05-03T02:44:54.060Z,1.90
2023-05-03T02:47:20.373Z,2.35
2023-05-03T02:49:47.738Z,2.83
2023-05-03T02:52:14.054Z,2.25
2023-05-03T02:54:40.362Z,2.00
2023-05-03T02:57:06.678Z,2.00
2023-05-03T02:59:33.047Z,2.00
2023-05-03T03:01:59.491Z,2.20
2023-05-03T03:04:25.887Z,2.20
2023-05-03T03:06:52.271Z,1.85
2023-05-03T03:09:18.879Z,2.00
2023-05-03T03:11:45.489Z,2.22
2023-05-03T03:14:11.813Z,3.00
2023-05-03T03:16:38.203Z,3.40
2023-05-03T03:19:04.567Z,4.38
2023-05-03T03:21:30.888Z,3.10
2023-05-03T03:23:57.202Z,3.05
2023-05-03T03:26:23.560Z,2.75
2023-05-03T03:28:49.935Z,2.17
2023-05-03T03:31:16.284Z,2.40
2023-05-03T03:33:42.610Z,2.23
2023-05-03T03:36:09.152Z,2.00
2023-05-03T03:38:35.642Z,2.00
2023-05-03T03:41:02.103Z,2.22
2023-05-03T03:43:28.410Z,1.90
2023-05-03T03:45:54.749Z,2.27
2023-05-03T03:48:21.139Z,2.33
2023-05-03T03:50:47.570Z,2.38
2023-05-03T03:53:13.890Z,2.20
2023-05-03T03:55:40.280Z,2.08
2023-05-03T03:58:06.651Z,2.10
2023-05-03T04:00:34.726Z,1.88
2023-05-03T04:03:01.171Z,2.10
2023-05-03T04:05:27.576Z,2.08
2023-05-03T04:07:53.879Z,2.00
2023-05-03T04:10:20.199Z,1.90
2023-05-03T04:12:46.507Z,2.55
2023-05-03T04:15:13.048Z,2.30
2023-05-03T04:17:39.408Z,2.40
2023-05-03T04:20:06.431Z,2.28
2023-05-03T04:22:33.100Z,2.50
2023-05-03T04:24:59.433Z,2.50
2023-05-03T04:27:25.764Z,2.47
2023-05-03T04:29:52.084Z,2.40
2023-05-03T04:32:18.385Z,2.40
2023-05-03T04:34:45.503Z,2.40
2023-05-03T04:37:12.994Z,2.92
2023-05-03T04:39:39.308Z,2.30
2023-05-03T04:42:05.663Z,2.35
2023-05-03T04:44:32.123Z,2.45
2023-05-03T04:46:58.427Z,2.30
2023-05-03T04:49:25.824Z,2.30
2023-05-03T04:51:53.314Z,3.00
2023-05-03T04:54:19.717Z,2.55
2023-05-03T04:56:46.043Z,2.50
2023-05-03T04:59:12.372Z,2.43
2023-05-03T05:01:38.710Z,2.20
2023-05-03T05:04:05.225Z,2.75
2023-05-03T05:06:31.738Z,2.38
2023-05-03T05:08:58.064Z,2.50
2023-05-03T05:11:24.399Z,2.40
2023-05-03T05:13:51.739Z,2.33
2023-05-03T05:16:18.083Z,2.63
2023-05-03T05:18:44.415Z,2.20
2023-05-03T05:21:10.786Z,2.60
2023-05-03T05:23:37.337Z,2.97
2023-05-03T05:26:03.803Z,2.38
2023-05-03T05:28:30.140Z,2.15
2023-05-03T05:30:56.453Z,2.55
2023-05-03T05:33:22.896Z,2.40
2023-05-03T05:35:49.269Z,2.50
2023-05-03T05:38:16.158Z,2.30
2023-05-03T05:40:42.496Z,2.50
2023-05-03T05:43:08.808Z,2.45
2023-05-03T05:45:35.269Z,2.60
2023-05-03T05:48:01.701Z,2.10
2023-05-03T05:50:28.042Z,2.55
2023-05-03T05:52:54.364Z,2.20
2023-05-03T05:55:20.690Z,2.40
2023-05-03T05:57:46.990Z,2.20
2023-05-03T06:00:13.710Z,2.30
2023-05-03T06:02:41.011Z,2.42
2023-05-03T06:05:08.117Z,2.20
2023-05-03T06:07:34.495Z,2.22
2023-05-03T06:10:01.187Z,1.92
2023-05-03T06:12:27.760Z,2.37
2023-05-03T06:15:02.274Z,2.20
2023-05-03T06:17:29.075Z,1.98
2023-05-03T06:19:57.345Z,2.30
2023-05-03T06:22:24.196Z,2.28
2023-05-03T06:24:50.724Z,2.17
2023-05-03T06:27:17.192Z,2.20
2023-05-03T06:29:43.582Z,2.13
2023-05-03T06:32:10.059Z,2.42
2023-05-03T06:34:36.496Z,2.00
2023-05-03T06:37:03.300Z,2.30
2023-05-03T06:39:29.645Z,2.10
2023-05-03T06:41:55.947Z,1.90
2023-05-03T06:44:22.287Z,1.90
2023-05-03T06:46:48.644Z,2.20
2023-05-03T06:49:14.998Z,2.20
2023-05-03T06:51:41.317Z,2.33
2023-05-03T06:54:07.630Z,2.10
2023-05-03T06:56:33.939Z,2.08
2023-05-03T06:59:00.312Z,1.95
2023-05-03T07:01:26.960Z,2.07
2023-05-03T07:03:53.434Z,2.15
2023-05-03T07:06:19.926Z,2.17
2023-05-03T07:08:46.311Z,2.05
2023-05-03T07:11:12.628Z,2.20
2023-05-03T07:13:38.959Z,2.17
2023-05-03T07:16:05.684Z,2.40
2023-05-03T07:18:32.104Z,2.60
2023-05-03T07:20:58.435Z,2.80
2023-05-03T07:23:24.789Z,1.98
2023-05-03T07:25:51.106Z,2.30
2023-05-03T07:28:17.442Z,2.22
2023-05-03T07:30:43.775Z,1.90
2023-05-03T07:33:10.184Z,1.98
2023-05-03T07:35:36.588Z,2.03
2023-05-03T07:38:02.919Z,2.00
2023-05-03T07:40:29.423Z,1.98
2023-05-03T07:42:55.749Z,2.42
2023-05-03T07:45:22.061Z,2.05
2023-05-03T07:47:48.418Z,2.15
2023-05-03T07:50:14.737Z,2.30
2023-05-03T07:52:41.058Z,2.50
2023-05-03T07:55:07.837Z,2.63
2023-05-03T07:57:34.131Z,2.50
2023-05-03T08:00:00.577Z,2.50
2023-05-03T08:02:27.222Z,2.90
2023-05-03T08:04:53.787Z,2.53
2023-05-03T08:07:20.693Z,3.20
2023-05-03T08:09:47.006Z,2.90
2023-05-03T08:12:13.316Z,2.63
2023-05-03T08:14:39.633Z,2.80
2023-05-03T08:17:06.020Z,2.80
2023-05-03T08:19:32.362Z,2.90
2023-05-03T08:21:58.671Z,3.08
2023-05-03T08:24:25.001Z,2.78
2023-05-03T08:26:51.343Z,2.87
2023-05-03T08:29:17.669Z,2.85
2023-05-03T08:31:44.132Z,2.70
2023-05-03T08:34:10.508Z,3.00
2023-05-03T08:36:37.264Z,3.03
2023-05-03T08:39:04.123Z,3.10
2023-05-03T08:41:31.539Z,4.22
2023-05-03T08:43:58.854Z,2.90
2023-05-03T08:46:25.612Z,3.13
2023-05-03T08:48:52.804Z,2.65
2023-05-03T08:51:20.189Z,2.97
2023-05-03T08:53:46.542Z,2.88
2023-05-03T08:56:29.209Z,2.97
2023-05-03T08:58:56.105Z,3.20
2023-05-03T09:01:22.452Z,3.17
2023-05-03T09:03:50.572Z,3.23
2023-05-03T09:06:24.520Z,3.22
2023-05-03T09:08:50.864Z,3.20
2023-05-03T09:11:21.733Z,3.17
2023-05-03T09:13:48.307Z,3.20
2023-05-03T09:16:26.215Z,3.30
2023-05-03T09:19:06.059Z,3.20
2023-05-03T09:21:32.361Z,3.65
2023-05-03T09:23:59.039Z,2.92
2023-05-03T09:26:31.850Z,3.10
2023-05-03T09:28:59.269Z,3.00
2023-05-03T09:31:27.536Z,3.35
2023-05-03T09:33:53.884Z,3.50
2023-05-03T09:36:20.183Z,2.95
2023-05-03T09:38:46.501Z,3.10
2023-05-03T09:41:12.895Z,2.77
2023-05-03T09:43:52.520Z,2.90
2023-05-03T09:46:18.944Z,2.63
2023-05-03T09:48:46.312Z,3.00
2023-05-03T09:51:12.793Z,2.90
2023-05-03T09:53:40.104Z,3.20
2023-05-03T09:56:08.387Z,2.47
2023-05-03T09:58:35.929Z,2.72
2023-05-03T10:01:02.503Z,2.92
2023-05-03T10:03:41.095Z,2.35
2023-05-03T10:06:19.607Z,2.80
2023-05-03T10:09:08.682Z,2.50
2023-05-03T10:11:35.764Z,2.50
2023-05-03T10:14:02.293Z,2.85
2023-05-03T10:16:35.154Z,2.55
2023-05-03T10:19:34.039Z,2.60
2023-05-03T10:22:07.200Z,2.78
2023-05-03T10:24:34.955Z,2.25
2023-05-03T10:27:01.868Z,2.50
2023-05-03T10:29:34.168Z,2.50
2023-05-03T10:32:19.790Z,2.40
2023-05-03T10:34:46.498Z,2.42
2023-05-03T10:37:12.919Z,2.20
2023-05-03T10:39:44.661Z,2.65
2023-05-03T10:42:10.991Z,2.50
2023-05-03T10:44:49.549Z,2.40
2023-05-03T10:47:16.903Z,2.50
2023-05-03T10:49:43.217Z,2.65
2023-05-03T10:52:35.884Z,2.30
2023-05-03T10:55:02.704Z,2.40
2023-05-03T10:57:31.611Z,2.30
2023-05-03T10:59:58.776Z,2.38
2023-05-03T11:02:31.295Z,2.20
2023-05-03T11:04:59.765Z,2.10
2023-05-03T11:07:26.132Z,2.42
2023-05-03T11:09:52.460Z,2.60
2023-05-03T11:12:18.808Z,2.03
2023-05-03T11:14:45.122Z,2.33
2023-05-03T11:17:11.518Z,2.28
2023-05-03T11:19:37.832Z,2.70
2023-05-03T11:22:04.192Z,2.60
2023-05-03T11:24:30.496Z,2.80
2023-05-03T11:26:56.955Z,2.63
2023-05-03T11:29:25.015Z,2.53
2023-05-03T11:31:52.205Z,2.63
2023-05-03T11:34:18.714Z,2.23
2023-05-03T11:36:45.036Z,2.50
2023-05-03T11:39:12.360Z,2.33
2023-05-03T11:41:39.002Z,2.63
2023-05-03T11:44:15.884Z,2.42
2023-05-03T11:46:44.481Z,2.60
2023-05-03T11:49:10.951Z,2.33
2023-05-03T11:51:37.418Z,2.40
2023-05-03T11:54:13.568Z,2.60
2023-05-03T11:56:52.847Z,3.03
2023-05-03T11:59:19.401Z,2.53
2023-05-03T12:01:45.719Z,2.88
2023-05-03T12:04:12.297Z,2.50
2023-05-03T12:06:40.007Z,2.58
2023-05-03T12:09:15.619Z,2.47
2023-05-03T12:11:44.234Z,2.80
2023-05-03T12:14:11.259Z,2.58
2023-05-03T12:16:50.388Z,2.65
2023-05-03T12:19:32.689Z,2.53
2023-05-03T12:22:22.598Z,2.63
2023-05-03T12:24:48.528Z,2.70
2023-05-03T12:27:17.370Z,3.03
2023-05-03T12:29:47.446Z,2.60
2023-05-03T12:32:14.156Z,2.70
2023-05-03T12:34:41.444Z,2.95
2023-05-03T12:37:11.170Z,2.90
2023-05-03T12:39:40.049Z,2.70
2023-05-03T12:42:08.252Z,2.75
2023-05-03T12:44:35.577Z,2.80
2023-05-03T12:47:02.819Z,2.63
2023-05-03T12:49:29.751Z,2.70
2023-05-03T12:52:22.023Z,2.80
2023-05-03T12:54:42.750Z,2.55
2023-05-03T12:57:14.691Z,2.10
2023-05-03T12:59:43.063Z,2.30
2023-05-03T13:07:13.417Z,2.65
2023-05-03T13:12:27.293Z,3.00
2023-05-03T13:14:54.067Z,2.63
2023-05-03T13:17:20.950Z,2.47
2023-05-03T13:19:47.256Z,2.72
2023-05-03T13:22:14.111Z,2.67
2023-05-03T13:24:41.097Z,2.80
2023-05-03T13:27:07.554Z,2.67
2023-05-03T13:29:33.872Z,2.67
2023-05-03T13:32:00.277Z,2.70
2023-05-03T13:34:26.669Z,2.92
2023-05-03T13:36:53.006Z,2.72
2023-05-03T13:39:19.307Z,2.70
2023-05-03T13:41:47.594Z,3.83
2023-05-03T13:44:14.516Z,2.50
2023-05-03T13:46:41.558Z,3.17
2023-05-03T13:49:08.094Z,2.70
2023-05-03T13:51:34.982Z,2.40
2023-05-03T13:54:02.798Z,2.90
2023-05-03T13:56:29.537Z,2.40
2023-05-03T13:58:55.979Z,2.42
2023-05-03T14:01:26.108Z,2.78
2023-05-03T14:03:52.947Z,2.50
2023-05-03T14:06:20.057Z,2.63
2023-05-03T14:08:50.250Z,2.42
2023-05-03T14:11:17.900Z,2.58
2023-05-03T14:13:56.525Z,2.75
2023-05-03T14:16:39.128Z,3.10
2023-05-03T14:19:07.556Z,2.80
2023-05-03T14:21:34.249Z,2.45
2023-05-03T14:24:00.806Z,2.75
2023-05-03T14:26:27.169Z,2.72
2023-05-03T14:28:53.494Z,2.50
2023-05-03T14:31:19.800Z,2.63
2023-05-03T14:33:46.177Z,2.90
2023-05-03T14:36:12.517Z,2.53
2023-05-03T14:38:38.826Z,2.70
2023-05-03T14:41:05.142Z,2.73
2023-05-03T14:43:32.100Z,2.70
2023-05-03T14:45:58.412Z,2.42
2023-05-03T14:48:24.760Z,2.45
2023-05-03T14:50:51.454Z,2.45
2023-05-03T14:53:17.822Z,3.10
2023-05-03T14:55:44.191Z,2.63
2023-05-03T14:58:10.541Z,2.65
2023-05-03T15:00:37.880Z,2.70
2023-05-03T15:03:04.276Z,2.95
2023-05-03T15:05:31.900Z,2.67
2023-05-03T15:07:58.838Z,2.70
2023-05-03T15:10:25.159Z,2.80
2023-05-03T15:12:51.477Z,2.90
2023-05-03T15:15:18.916Z,2.28
2023-05-03T15:17:45.260Z,2.63
2023-05-03T15:20:12.319Z,2.60
2023-05-03T15:22:38.640Z,2.72
2023-05-03T15:25:05.190Z,2.80
2023-05-03T15:27:31.499Z,2.85
2023-05-03T15:29:57.833Z,2.60
2023-05-03T15:32:24.172Z,2.65
2023-05-03T15:34:50.474Z,2.65
2023-05-03T15:37:16.809Z,2.20
2023-05-03T15:39:43.152Z,2.65
2023-05-03T15:42:09.466Z,2.70
2023-05-03T15:44:35.790Z,3.17
2023-05-03T15:47:02.096Z,2.10
2023-05-03T15:49:28.417Z,2.50
2023-05-03T15:51:54.744Z,2.30
2023-05-03T15:54:21.054Z,2.67
2023-05-03T15:56:47.370Z,2.40
2023-05-03T15:59:13.703Z,2.55
2023-05-03T16:01:40.596Z,2.40
2023-05-03T16:04:06.951Z,2.30
2023-05-03T16:06:33.686Z,2.57
2023-05-03T16:09:00.028Z,2.20
2023-05-03T16:11:26.360Z,2.45
2023-05-03T16:13:52.726Z,2.40
2023-05-03T16:16:19.166Z,2.50
2023-05-03T16:18:45.588Z,2.50
2023-05-03T16:21:11.911Z,2.42
2023-05-03T16:23:38.258Z,2.15
2023-05-03T16:26:12.023Z,2.20
2023-05-03T16:28:38.352Z,2.00
2023-05-03T16:31:04.662Z,2.03
2023-05-03T16:33:30.989Z,2.05
2023-05-03T16:35:57.524Z,2.42
2023-05-03T16:38:23.842Z,2.05
2023-05-03T16:40:50.145Z,2.45
2023-05-03T16:43:16.466Z,2.30
2023-05-03T16:45:43.924Z,2.20
2023-05-03T16:48:10.613Z,2.35
2023-05-03T16:50:37.053Z,2.38
2023-05-03T16:53:03.370Z,2.05
2023-05-03T16:55:29.754Z,2.30
2023-05-03T16:57:56.377Z,2.30
2023-05-03T17:00:22.703Z,2.35
2023-05-03T17:02:49.236Z,2.45
2023-05-03T17:05:15.684Z,2.47
2023-05-03T17:07:42.046Z,2.53
2023-05-03T17:10:09.024Z,3.15
2023-05-03T17:12:35.367Z,2.30
2023-05-03T17:15:01.770Z,2.22
2023-05-03T17:17:28.098Z,2.03
2023-05-03T17:19:54.419Z,2.30
2023-05-03T17:22:20.752Z,2.00
2023-05-03T17:24:47.084Z,2.42
2023-05-03T17:27:13.388Z,2.30
2023-05-03T17:29:39.765Z,2.33
2023-05-03T17:32:06.098Z,2.47
2023-05-03T17:34:32.425Z,2.53
2023-05-03T17:36:59.002Z,2.30
2023-05-03T17:39:25.372Z,2.25
2023-05-03T17:41:51.713Z,2.45
2023-05-03T17:44:18.023Z,2.20
2023-05-03T17:46:44.423Z,2.05
2023-05-03T17:49:10.772Z,2.33
2023-05-03T17:51:37.097Z,2.30
2023-05-03T17:54:03.535Z,2.40
2023-05-03T17:56:29.852Z,2.73
2023-05-03T17:58:56.184Z,2.25
2023-05-03T18:01:22.546Z,2.30
2023-05-03T18:03:49.414Z,2.50
2023-05-03T18:06:15.974Z,2.33
2023-05-03T18:08:42.449Z,2.30
2023-05-03T18:11:08.777Z,2.35
2023-05-03T18:13:35.111Z,2.40
2023-05-03T18:16:01.435Z,2.15
2023-05-03T18:18:27.771Z,2.55
2023-05-03T18:21:01.100Z,2.53
2023-05-03T18:23:27.653Z,2.28
2023-05-03T18:25:53.984Z,2.40
2023-05-03T18:28:21.156Z,2.15
2023-05-03T18:30:47.475Z,2.08
2023-05-03T18:33:13.819Z,2.17
2023-05-03T18:35:40.284Z,2.20
2023-05-03T18:38:06.619Z,2.58
2023-05-03T18:40:33.001Z,2.60
2023-05-03T18:42:59.308Z,2.40
2023-05-03T18:45:25.626Z,2.50
2023-05-03T18:47:52.060Z,2.33
2023-05-03T18:50:18.408Z,2.17
2023-05-03T18:52:44.744Z,2.13
2023-05-03T18:55:11.052Z,2.22
2023-05-03T18:57:37.459Z,1.90
2023-05-03T19:00:03.966Z,2.42
2023-05-03T19:02:30.356Z,2.13
2023-05-03T19:04:56.868Z,2.20
2023-05-03T19:07:23.232Z,1.98
2023-05-03T19:09:56.315Z,1.80
2023-05-03T19:12:23.095Z,2.00
2023-05-03T19:14:49.645Z,2.63
2023-05-03T19:17:15.960Z,2.63
2023-05-03T19:19:42.324Z,2.03
2023-05-03T19:22:09.666Z,2.20
2023-05-03T19:24:36.093Z,1.90
2023-05-03T19:27:02.446Z,2.20
2023-05-03T19:29:28.786Z,2.28
2023-05-03T19:31:55.092Z,2.45
2023-05-03T19:34:21.417Z,2.20
2023-05-03T19:36:47.729Z,2.30
2023-05-03T19:39:14.041Z,2.40
2023-05-03T19:41:40.352Z,2.40
2023-05-03T19:44:06.730Z,2.40
2023-05-03T19:46:33.061Z,2.90
2023-05-03T19:48:59.777Z,3.05
2023-05-03T19:51:26.096Z,2.90
2023-05-03T19:53:52.413Z,2.90
2023-05-03T19:56:18.745Z,2.78
2023-05-03T19:58:45.062Z,2.97
2023-05-03T20:01:11.416Z,4.38
2023-05-03T20:03:39.333Z,3.38
2023-05-03T20:06:05.791Z,2.70
2023-05-03T20:08:32.104Z,3.20
2023-05-03T20:10:58.714Z,3.10
2023-05-03T20:13:25.063Z,3.22
2023-05-03T20:15:51.429Z,3.15
2023-05-03T20:18:17.760Z,3.20
2023-05-03T20:20:44.077Z,3.70
2023-05-03T20:23:10.393Z,4.27
2023-05-03T20:25:36.713Z,3.65
2023-05-03T20:28:03.173Z,3.58
2023-05-03T20:30:29.568Z,3.70
2023-05-03T20:32:56.010Z,3.67
2023-05-03T20:35:22.368Z,3.57
2023-05-03T20:37:48.672Z,3.58
2023-05-03T20:40:15.738Z,3.88
2023-05-03T20:42:42.127Z,4.15
2023-05-03T20:45:08.729Z,4.28
2023-05-03T20:47:35.080Z,4.10
2023-05-03T20:50:01.457Z,4.57
2023-05-03T20:52:27.974Z,4.05
2023-05-03T20:54:54.290Z,4.40
2023-05-03T20:57:20.597Z,4.28
2023-05-03T20:59:46.923Z,4.43
2023-05-03T21:02:13.270Z,4.50
2023-05-03T21:04:39.631Z,4.57
2023-05-03T21:07:05.941Z,4.97
2023-05-03T21:09:32.255Z,4.15
2023-05-03T21:11:58.576Z,3.90
2023-05-03T21:14:24.905Z,4.13
2023-05-03T21:16:52.038Z,4.18
2023-05-03T21:19:18.361Z,4.15
2023-05-03T21:21:44.766Z,4.03
2023-05-03T21:24:11.096Z,3.90
2023-05-03T21:26:37.412Z,3.80
2023-05-03T21:29:03.723Z,3.65
2023-05-03T21:31:30.148Z,4.10
2023-05-03T21:33:56.497Z,4.07
2023-05-03T21:36:22.815Z,3.60
2023-05-03T21:38:51.411Z,3.78
2023-05-03T21:41:18.898Z,3.78
2023-05-03T21:43:45.241Z,3.58
2023-05-03T21:46:11.574Z,3.80
2023-05-03T21:48:38.038Z,4.13
2023-05-03T21:51:04.359Z,4.10
2023-05-03T21:53:31.058Z,4.22
2023-05-03T21:55:57.383Z,4.20
2023-05-03T21:58:23.725Z,4.13
2023-05-03T22:00:50.037Z,4.10
2023-05-03T22:03:16.432Z,4.55
2023-05-03T22:05:42.789Z,4.35
2023-05-03T22:08:09.116Z,3.92
2023-05-03T22:10:35.421Z,4.40
2023-05-03T22:13:01.845Z,4.00
2023-05-03T22:15:30.979Z,4.13
2023-05-03T22:17:57.313Z,4.13
2023-05-03T22:20:23.681Z,3.67
2023-05-03T22:22:50.041Z,3.75
2023-05-03T22:25:23.402Z,4.10
2023-05-03T22:27:50.226Z,3.70
2023-05-03T22:30:16.683Z,3.67
2023-05-03T22:32:43.029Z,3.70
2023-05-03T22:35:09.576Z,3.58
2023-05-03T22:37:36.313Z,2.80
2023-05-03T22:40:02.912Z,3.22
2023-05-03T22:42:29.399Z,3.50
2023-05-03T22:44:57.028Z,3.58
2023-05-03T22:47:23.816Z,3.53
2023-05-03T22:49:50.143Z,3.30
2023-05-03T22:52:16.464Z,3.80
2023-05-03T22:54:42.786Z,3.20
2023-05-03T22:57:09.360Z,3.22
2023-05-03T22:59:35.669Z,3.50
2023-05-03T23:02:01.999Z,3.73
2023-05-03T23:04:28.326Z,3.20
2023-05-03T23:06:55.707Z,3.30
2023-05-03T23:09:22.018Z,3.50
2023-05-03T23:11:48.354Z,3.70
2023-05-03T23:14:14.683Z,3.43
2023-05-03T23:16:41.063Z,3.90
2023-05-03T23:19:08.475Z,3.60
2023-05-03T23:21:34.797Z,3.70
2023-05-03T23:24:01.109Z,3.42
2023-05-03T23:26:27.459Z,3.57
2023-05-03T23:28:54.177Z,3.40
2023-05-03T23:31:21.007Z,3.40
2023-05-03T23:33:47.738Z,3.28
2023-05-03T23:36:14.056Z,3.30
2023-05-03T23:38:40.428Z,3.67
2023-05-03T23:41:06.769Z,3.20
2023-05-03T23:43:33.092Z,3.42
2023-05-03T23:45:59.413Z,3.58
2023-05-03T23:48:25.777Z,3.67
2023-05-03T23:50:52.097Z,3.70
2023-05-03T23:53:18.400Z,3.40
2023-05-03T23:55:44.730Z,3.40
2023-05-03T23:58:11.038Z,3.67
